createdAt,value
2022-09-23T00:01:19.187Z,9.07
2022-09-23T00:03:46.362Z,8.93
2022-09-23T00:06:19.195Z,9.93
2022-09-23T00:08:46.431Z,8.63
2022-09-23T00:11:16.010Z,11.18
2022-09-23T00:13:45.358Z,7.70
2022-09-23T00:16:15.370Z,8.73
2022-09-23T00:18:43.237Z,8.40
2022-09-23T00:21:13.060Z,10.82
2022-09-23T00:23:43.044Z,9.25
2022-09-23T00:26:14.172Z,8.37
2022-09-23T00:28:41.629Z,7.03
2022-09-23T00:31:14.763Z,8.55
2022-09-23T00:33:41.976Z,7.18
2022-09-23T00:36:11.630Z,12.35
2022-09-23T00:38:38.986Z,8.20
2022-09-23T00:41:06.539Z,7.53
2022-09-23T00:43:53.005Z,9.25
2022-09-23T00:46:29.246Z,10.68
2022-09-23T00:49:22.745Z,9.05
2022-09-23T00:51:55.999Z,12.17
2022-09-23T00:54:25.230Z,8.98
2022-09-23T00:56:52.289Z,9.63
2022-09-23T00:59:20.825Z,8.95
2022-09-23T01:01:50.112Z,10.48
2022-09-23T01:04:17.058Z,7.87
2022-09-23T01:06:43.903Z,7.53
2022-09-23T01:09:10.850Z,9.38
2022-09-23T01:12:10.273Z,8.43
2022-09-23T01:14:43.189Z,7.80
2022-09-23T01:17:31.554Z,8.67
2022-09-23T01:20:29.711Z,8.65
2022-09-23T01:22:56.443Z,7.10
2022-09-23T01:26:00.374Z,7.53
2022-09-23T01:29:02.639Z,8.70
2022-09-23T01:31:39.720Z,11.33
2022-09-23T01:34:38.833Z,7.68
2022-09-23T01:37:16.117Z,8.52
2022-09-23T01:40:14.833Z,6.68
2022-09-23T01:43:00.654Z,7.55
2022-09-23T01:45:37.579Z,7.33
2022-09-23T01:48:15.223Z,6.30
2022-09-23T01:50:57.697Z,7.72
2022-09-23T01:53:43.320Z,6.45
2022-09-23T01:56:21.272Z,5.93
2022-09-23T01:59:04.558Z,7.30
2022-09-23T02:01:39.349Z,9.18
2022-09-23T02:04:31.265Z,6.95
2022-09-23T02:07:03.694Z,6.60
2022-09-23T02:09:37.769Z,6.97
2022-09-23T02:12:12.838Z,7.83
2022-09-23T02:14:59.806Z,6.93
2022-09-23T02:17:41.857Z,7.47
2022-09-23T02:20:13.770Z,6.57
2022-09-23T02:22:50.082Z,7.45
2022-09-23T02:25:17.463Z,5.90
2022-09-23T02:27:54.421Z,5.90
2022-09-23T02:30:27.295Z,6.78
2022-09-23T02:33:08.824Z,7.68
2022-09-23T02:35:59.345Z,5.20
2022-09-23T02:38:31.868Z,6.00
2022-09-23T02:41:10.904Z,5.95
2022-09-23T02:43:46.441Z,5.93
2022-09-23T02:46:13.444Z,7.18
2022-09-23T02:48:49.510Z,8.52
2022-09-23T02:51:16.763Z,6.33
2022-09-23T02:53:46.010Z,5.85
2022-09-23T02:56:21.153Z,5.20
2022-09-23T02:58:49.990Z,6.97
2022-09-23T03:01:45.456Z,5.15
2022-09-23T03:04:17.189Z,5.33
2022-09-23T03:06:46.772Z,8.70
2022-09-23T03:09:34.048Z,5.80
2022-09-23T03:12:39.534Z,5.65
2022-09-23T03:15:09.359Z,7.40
2022-09-23T03:17:54.623Z,5.13
2022-09-23T03:20:34.787Z,4.80
2022-09-23T03:23:06.952Z,5.07
2022-09-23T03:25:38.460Z,5.53
2022-09-23T03:28:08.372Z,5.32
2022-09-23T03:30:36.755Z,5.80
2022-09-23T03:33:09.740Z,3.90
2022-09-23T03:36:04.644Z,5.70
2022-09-23T03:38:38.082Z,6.00
2022-09-23T03:41:09.638Z,4.28
2022-09-23T03:43:38.948Z,4.93
2022-09-23T03:46:08.370Z,6.55
2022-09-23T03:48:35.342Z,6.18
2022-09-23T03:51:20.411Z,5.55
2022-09-23T03:53:48.340Z,6.72
2022-09-23T03:56:15.337Z,7.60
2022-09-23T03:58:42.794Z,8.45
2022-09-23T04:01:09.630Z,5.60
2022-09-23T04:03:36.485Z,5.05
2022-09-23T04:06:03.581Z,5.60
2022-09-23T04:08:30.530Z,6.93
2022-09-23T04:11:01.818Z,8.30
2022-09-23T04:13:29.536Z,7.03
2022-09-23T04:15:56.279Z,5.75
2022-09-23T04:18:23.585Z,5.38
2022-09-23T04:20:50.428Z,5.83
2022-09-23T04:23:17.324Z,5.65
2022-09-23T04:25:48.622Z,5.85
2022-09-23T04:28:15.929Z,7.00
2022-09-23T04:30:43.902Z,5.38
2022-09-23T04:33:11.470Z,6.07
2022-09-23T04:35:40.358Z,9.20
2022-09-23T04:38:07.759Z,7.32
2022-09-23T04:40:36.070Z,6.75
2022-09-23T04:43:03.390Z,5.20
2022-09-23T04:45:30.600Z,7.03
2022-09-23T04:47:58.713Z,6.00
2022-09-23T04:50:26.744Z,6.53
2022-09-23T04:52:54.289Z,9.63
2022-09-23T04:55:22.473Z,5.72
2022-09-23T04:57:49.263Z,10.83
2022-09-23T05:00:16.538Z,6.60
2022-09-23T05:02:48.027Z,7.53
2022-09-23T05:05:18.711Z,9.98
2022-09-23T05:07:45.419Z,7.57
2022-09-23T05:10:12.233Z,7.57
2022-09-23T05:12:39.131Z,9.52
2022-09-23T05:15:06.192Z,7.10
2022-09-23T05:17:33.032Z,6.68
2022-09-23T05:20:00.022Z,5.88
2022-09-23T05:22:26.917Z,8.07
2022-09-23T05:24:53.960Z,7.45
2022-09-23T05:27:21.166Z,7.15
2022-09-23T05:29:49.037Z,10.75
2022-09-23T05:32:16.094Z,7.55
2022-09-23T05:34:43.345Z,6.73
2022-09-23T05:37:10.441Z,7.95
2022-09-23T05:39:37.592Z,7.55
2022-09-23T05:42:04.892Z,10.23
2022-09-23T05:44:31.798Z,10.50
2022-09-23T05:46:58.767Z,8.03
2022-09-23T05:49:42.482Z,9.27
2022-09-23T05:52:12.709Z,9.65
2022-09-23T05:54:40.474Z,10.77
2022-09-23T05:57:07.403Z,8.65
2022-09-23T05:59:34.415Z,10.43
2022-09-23T06:02:02.120Z,8.82
2022-09-23T06:04:29.210Z,11.32
2022-09-23T06:07:00.271Z,7.40
2022-09-23T06:09:34.119Z,8.93
2022-09-23T06:12:04.436Z,9.37
2022-09-23T06:14:31.343Z,10.50
2022-09-23T06:16:58.442Z,9.30
2022-09-23T06:19:25.331Z,11.10
2022-09-23T06:21:52.495Z,8.68
2022-09-23T06:24:22.924Z,11.93
2022-09-23T06:26:51.978Z,11.50
2022-09-23T06:29:18.992Z,11.48
2022-09-23T06:31:46.101Z,10.57
2022-09-23T06:34:14.757Z,10.07
2022-09-23T06:36:45.519Z,9.70
2022-09-23T06:39:16.242Z,10.23
2022-09-23T06:41:44.900Z,11.00
2022-09-23T06:44:12.008Z,13.38
2022-09-23T06:46:39.113Z,11.27
2022-09-23T06:49:06.315Z,14.10
2022-09-23T06:51:33.670Z,11.52
2022-09-23T06:54:00.721Z,12.32
2022-09-23T06:56:27.947Z,12.40
2022-09-23T06:58:54.925Z,13.00
2022-09-23T07:01:23.036Z,12.50
2022-09-23T07:03:50.494Z,14.50
2022-09-23T07:06:18.123Z,12.35
2022-09-23T07:08:47.547Z,14.88
2022-09-23T07:11:20.955Z,13.70
2022-09-23T07:13:47.784Z,14.47
2022-09-23T07:16:14.921Z,16.42
2022-09-23T07:18:42.959Z,16.05
2022-09-23T07:21:15.693Z,14.10
2022-09-23T07:23:52.780Z,15.57
2022-09-23T07:26:20.348Z,13.83
2022-09-23T07:28:47.341Z,12.38
2022-09-23T07:31:24.104Z,16.42
2022-09-23T07:33:57.819Z,16.63
2022-09-23T07:36:28.040Z,12.73
2022-09-23T07:39:00.691Z,13.03
2022-09-23T07:41:29.105Z,13.68
2022-09-23T07:43:59.029Z,15.25
2022-09-23T07:46:28.212Z,12.57
2022-09-23T07:48:55.276Z,13.57
2022-09-23T07:51:26.315Z,14.67
2022-09-23T07:53:54.919Z,13.23
2022-09-23T07:56:25.810Z,12.70
2022-09-23T07:59:03.843Z,11.43
2022-09-23T08:01:36.170Z,13.40
2022-09-23T08:04:09.361Z,12.90
2022-09-23T08:06:39.876Z,14.73
2022-09-23T08:09:06.913Z,14.00
2022-09-23T08:11:34.152Z,15.95
2022-09-23T08:14:01.083Z,11.50
2022-09-23T08:16:28.402Z,12.87
2022-09-23T08:18:55.301Z,10.68
2022-09-23T08:21:23.253Z,13.70
2022-09-23T08:23:51.873Z,11.23
2022-09-23T08:26:22.137Z,12.18
2022-09-23T08:28:50.389Z,11.37
2022-09-23T08:31:17.567Z,10.23
2022-09-23T08:33:44.525Z,10.32
2022-09-23T08:36:11.497Z,11.35
2022-09-23T08:38:38.429Z,10.02
2022-09-23T08:41:25.566Z,10.50
2022-09-23T08:44:02.228Z,10.88
2022-09-23T08:46:43.602Z,11.43
2022-09-23T08:49:17.621Z,11.23
2022-09-23T08:51:47.533Z,9.98
2022-09-23T08:54:18.060Z,10.07
2022-09-23T08:56:49.305Z,11.82
2022-09-23T08:59:43.824Z,11.75
2022-09-23T09:02:22.879Z,11.38
2022-09-23T09:04:54.709Z,13.23
2022-09-23T09:07:38.516Z,10.37
2022-09-23T09:10:27.046Z,11.43
2022-09-23T09:13:07.613Z,9.57
2022-09-23T09:15:45.241Z,10.05
2022-09-23T09:18:21.512Z,9.75
2022-09-23T09:20:48.302Z,11.37
2022-09-23T09:23:34.860Z,9.50
2022-09-23T09:26:03.258Z,10.55
2022-09-23T09:28:39.322Z,9.88
2022-09-23T09:31:36.862Z,10.07
2022-09-23T09:34:24.768Z,11.27
2022-09-23T09:37:14.022Z,11.40
2022-09-23T09:39:41.122Z,9.05
2022-09-23T09:42:20.404Z,9.43
2022-09-23T09:44:58.865Z,11.15
2022-09-23T09:47:56.748Z,10.13
2022-09-23T09:50:47.339Z,9.00
2022-09-23T09:53:35.871Z,8.57
2022-09-23T09:56:05.293Z,9.35
2022-09-23T09:58:48.306Z,8.13
2022-09-23T10:01:35.318Z,9.03
2022-09-23T10:04:06.450Z,7.32
2022-09-23T10:06:36.048Z,8.32
2022-09-23T10:09:26.226Z,9.50
2022-09-23T10:12:13.243Z,9.05
2022-09-23T10:14:40.191Z,7.43
2022-09-23T10:17:15.622Z,8.02
2022-09-23T10:19:48.408Z,7.85
2022-09-23T10:22:33.621Z,7.60
2022-09-23T10:25:07.678Z,11.02
2022-09-23T10:27:36.726Z,7.93
2022-09-23T10:30:23.198Z,8.90
2022-09-23T10:32:55.151Z,9.50
2022-09-23T10:35:24.728Z,8.32
2022-09-23T10:37:54.024Z,8.13
2022-09-23T10:40:50.814Z,7.90
2022-09-23T10:44:11.217Z,8.05
2022-09-23T10:46:51.450Z,5.70
2022-09-23T10:49:58.828Z,9.77
2022-09-23T10:52:54.855Z,7.38
2022-09-23T10:55:35.539Z,8.67
2022-09-23T10:58:37.293Z,8.05
2022-09-23T11:01:37.713Z,9.10
2022-09-23T11:04:38.469Z,6.97
2022-09-23T11:07:08.438Z,8.50
2022-09-23T11:09:48.743Z,6.70
2022-09-23T11:12:24.659Z,7.22
2022-09-23T11:15:00.619Z,7.95
2022-09-23T11:17:51.577Z,9.57
2022-09-23T11:20:22.026Z,6.35
2022-09-23T11:23:34.816Z,9.17
2022-09-23T11:26:13.906Z,8.23
2022-09-23T11:28:55.344Z,7.50
2022-09-23T11:31:34.269Z,5.85
2022-09-23T11:34:39.521Z,6.45
2022-09-23T11:37:18.757Z,7.63
2022-09-23T11:40:03.369Z,6.93
2022-09-23T11:42:36.760Z,9.23
2022-09-23T11:45:15.117Z,6.88
2022-09-23T11:47:56.764Z,6.13
2022-09-23T11:50:42.337Z,6.73
2022-09-23T11:53:23.110Z,7.40
2022-09-23T11:56:24.292Z,5.43
2022-09-23T11:59:11.215Z,6.05
2022-09-23T12:01:50.029Z,5.45
2022-09-23T12:04:24.273Z,6.63
2022-09-23T12:07:19.011Z,6.18
2022-09-23T12:10:07.177Z,6.22
2022-09-23T12:12:48.914Z,6.35
2022-09-23T12:15:37.424Z,4.65
2022-09-23T12:18:43.113Z,5.77
2022-09-23T12:21:38.845Z,5.32
2022-09-23T12:24:22.341Z,4.00
2022-09-23T12:26:54.540Z,5.57
2022-09-23T12:29:24.929Z,6.30
2022-09-23T12:31:52.017Z,4.97
2022-09-23T12:34:25.113Z,5.43
2022-09-23T12:36:52.515Z,5.53
2022-09-23T12:39:31.859Z,4.97
2022-09-23T12:42:20.912Z,5.15
2022-09-23T12:44:49.110Z,4.83
2022-09-23T12:47:21.415Z,8.32
2022-09-23T12:49:49.702Z,4.72
2022-09-23T12:52:16.709Z,5.28
2022-09-23T12:54:48.451Z,4.18
2022-09-23T12:57:33.331Z,3.93
2022-09-23T13:00:23.206Z,4.07
2022-09-23T13:03:08.281Z,2.88
2022-09-23T13:06:20.531Z,3.28
2022-09-23T13:08:49.636Z,5.90
2022-09-23T13:11:27.747Z,6.10
2022-09-23T13:13:56.733Z,3.80
2022-09-23T13:16:29.474Z,4.97
2022-09-23T13:19:01.326Z,4.03
2022-09-23T13:21:43.538Z,5.00
2022-09-23T13:24:12.997Z,4.30
2022-09-23T13:27:05.679Z,3.58
2022-09-23T13:29:49.683Z,5.05
2022-09-23T13:32:21.099Z,3.92
2022-09-23T13:35:02.415Z,3.35
2022-09-23T13:37:38.171Z,3.83
2022-09-23T13:40:16.589Z,4.10
2022-09-23T13:42:46.107Z,4.50
2022-09-23T13:45:19.203Z,4.20
2022-09-23T13:47:48.288Z,4.22
2022-09-23T13:50:19.885Z,6.70
2022-09-23T13:52:52.839Z,6.65
2022-09-23T13:55:37.693Z,3.95
2022-09-23T13:58:19.444Z,5.30
2022-09-23T14:00:49.534Z,5.15
2022-09-23T14:03:36.454Z,3.43
2022-09-23T14:06:14.742Z,4.88
2022-09-23T14:08:45.519Z,6.20
2022-09-23T14:11:22.209Z,5.13
2022-09-23T14:13:54.366Z,4.30
2022-09-23T14:16:25.352Z,6.17
2022-09-23T14:18:57.406Z,4.90
2022-09-23T14:21:38.600Z,7.50
2022-09-23T14:24:15.488Z,4.75
2022-09-23T14:26:44.969Z,6.07
2022-09-23T14:29:33.479Z,5.37
2022-09-23T14:32:21.418Z,7.35
2022-09-23T14:35:00.453Z,6.45
2022-09-23T14:37:45.723Z,4.15
2022-09-23T14:40:34.773Z,5.30
2022-09-23T14:43:22.938Z,3.60
2022-09-23T14:45:56.040Z,4.22
2022-09-23T14:48:28.917Z,6.22
2022-09-23T14:51:04.846Z,4.05
2022-09-23T14:53:43.064Z,5.97
2022-09-23T14:56:21.091Z,4.80
2022-09-23T14:58:56.681Z,5.57
2022-09-23T15:01:32.929Z,7.18
2022-09-23T15:04:10.077Z,6.10
2022-09-23T15:06:39.597Z,7.68
2022-09-23T15:09:07.658Z,8.33
2022-09-23T15:11:36.249Z,8.80
2022-09-23T15:14:33.251Z,7.32
2022-09-23T15:16:53.741Z,6.57
2022-09-23T15:19:21.829Z,6.75
2022-09-23T15:21:54.509Z,7.33
2022-09-23T15:25:14.786Z,5.97
2022-09-23T15:27:41.838Z,7.15
2022-09-23T15:30:18.032Z,6.97
2022-09-23T15:32:46.141Z,8.18
2022-09-23T15:35:19.020Z,9.30
2022-09-23T15:37:48.830Z,6.72
2022-09-23T15:40:26.144Z,7.93
2022-09-23T15:43:07.249Z,9.60
2022-09-23T15:45:44.031Z,6.22
2022-09-23T15:48:17.492Z,7.17
2022-09-23T15:50:47.311Z,6.85
2022-09-23T15:53:17.722Z,6.38
2022-09-23T15:55:45.429Z,8.73
2022-09-23T15:58:12.424Z,6.25
2022-09-23T16:00:39.658Z,6.60
2022-09-23T16:03:06.837Z,6.45
2022-09-23T16:05:38.068Z,11.48
2022-09-23T16:08:10.071Z,9.63
2022-09-23T16:10:37.849Z,7.05
2022-09-23T16:13:07.922Z,6.77
2022-09-23T16:15:34.883Z,6.75
2022-09-23T16:18:01.875Z,10.35
2022-09-23T16:20:30.522Z,7.57
2022-09-23T16:23:01.467Z,8.10
2022-09-23T16:25:31.776Z,6.00
2022-09-23T16:27:59.133Z,8.05
2022-09-23T16:30:27.870Z,7.40
2022-09-23T16:32:55.387Z,8.45
2022-09-23T16:35:24.894Z,8.52
2022-09-23T16:37:52.507Z,7.93
2022-09-23T16:40:21.763Z,8.73
2022-09-23T16:42:49.718Z,9.52
2022-09-23T16:45:18.347Z,7.22
2022-09-23T16:47:47.711Z,7.25
2022-09-23T16:50:17.485Z,7.97
2022-09-23T16:52:45.181Z,11.02
2022-09-23T16:55:13.988Z,12.85
2022-09-23T16:57:41.386Z,7.55
2022-09-23T17:00:34.607Z,11.07
2022-09-23T17:03:20.783Z,11.80
2022-09-23T17:05:49.385Z,9.18
2022-09-23T17:08:18.098Z,12.90
2022-09-23T17:10:55.194Z,10.77
2022-09-23T17:13:21.977Z,9.38
2022-09-23T17:15:48.865Z,12.23
2022-09-23T17:18:19.452Z,10.70
2022-09-23T17:21:07.874Z,12.95
2022-09-23T17:23:36.149Z,12.57
2022-09-23T17:26:03.195Z,13.48
2022-09-23T17:28:30.091Z,10.20
2022-09-23T17:31:02.049Z,11.05
2022-09-23T17:33:31.103Z,12.02
2022-09-23T17:36:00.290Z,14.23
2022-09-23T17:38:29.281Z,11.80
2022-09-23T17:40:59.515Z,13.90
2022-09-23T17:43:26.820Z,9.48
2022-09-23T17:45:56.349Z,10.88
2022-09-23T17:48:25.491Z,12.20
2022-09-23T17:50:56.048Z,9.55
2022-09-23T17:53:23.922Z,13.80
2022-09-23T17:56:01.971Z,13.25
2022-09-23T17:58:30.301Z,14.73
2022-09-23T18:00:58.339Z,15.15
2022-09-23T18:03:27.724Z,14.13
2022-09-23T18:05:55.249Z,10.00
2022-09-23T18:08:22.128Z,11.88
2022-09-23T18:10:49.097Z,11.02
2022-09-23T18:13:15.926Z,12.30
2022-09-23T18:15:42.862Z,14.65
2022-09-23T18:18:09.862Z,14.43
2022-09-23T18:20:36.614Z,13.73
2022-09-23T18:23:03.500Z,13.13
2022-09-23T18:25:39.595Z,12.68
2022-09-23T18:28:07.184Z,14.27
2022-09-23T18:30:34.064Z,13.37
2022-09-23T18:33:01.788Z,15.23
2022-09-23T18:35:28.876Z,13.65
2022-09-23T18:37:56.158Z,12.55
2022-09-23T18:40:23.141Z,14.10
2022-09-23T18:42:50.444Z,14.03
2022-09-23T18:45:17.324Z,12.23
2022-09-23T18:48:02.719Z,12.35
2022-09-23T18:50:43.430Z,16.30
2022-09-23T18:53:10.637Z,14.43
2022-09-23T18:55:38.229Z,14.93
2022-09-23T18:58:07.493Z,14.77
2022-09-23T19:00:35.104Z,14.57
2022-09-23T19:03:02.406Z,14.60
2022-09-23T19:05:29.512Z,14.65
2022-09-23T19:07:56.393Z,17.67
2022-09-23T19:10:23.240Z,15.73
2022-09-23T19:12:50.240Z,17.90
2022-09-23T19:15:17.396Z,14.45
2022-09-23T19:17:44.289Z,18.05
2022-09-23T19:20:11.285Z,14.40
2022-09-23T19:22:38.346Z,15.57
2022-09-23T19:25:05.736Z,15.07
2022-09-23T19:27:33.413Z,16.00
2022-09-23T19:30:00.270Z,14.00
2022-09-23T19:32:27.249Z,19.57
2022-09-23T19:34:54.138Z,15.55
2022-09-23T19:37:21.187Z,19.67
2022-09-23T19:39:48.335Z,16.90
2022-09-23T19:42:15.176Z,19.80
2022-09-23T19:44:42.039Z,17.13
2022-09-23T19:47:15.581Z,14.68
2022-09-23T19:49:42.630Z,20.38
2022-09-23T19:52:09.569Z,18.52
2022-09-23T19:54:37.756Z,18.58
2022-09-23T19:57:04.753Z,20.93
2022-09-23T19:59:31.755Z,17.17
2022-09-23T20:01:58.635Z,15.73
2022-09-23T20:04:26.306Z,15.90
2022-09-23T20:06:53.134Z,18.58
2022-09-23T20:09:20.074Z,16.37
2022-09-23T20:11:46.979Z,19.02
2022-09-23T20:14:14.040Z,20.38
2022-09-23T20:16:41.003Z,17.83
2022-09-23T20:19:10.183Z,17.27
2022-09-23T20:21:37.177Z,19.77
2022-09-23T20:24:05.882Z,20.48
2022-09-23T20:26:51.605Z,20.48
2022-09-23T20:29:18.809Z,24.15
2022-09-23T20:31:46.037Z,21.08
2022-09-23T20:34:13.100Z,21.37
2022-09-23T20:36:41.487Z,17.73
2022-09-23T20:39:10.026Z,21.17
2022-09-23T20:41:38.652Z,18.80
2022-09-23T20:44:12.709Z,21.90
2022-09-23T20:46:46.778Z,19.40
2022-09-23T20:49:15.826Z,19.95
2022-09-23T20:51:42.829Z,19.63
2022-09-23T20:54:09.822Z,20.75
2022-09-23T20:56:36.726Z,18.77
2022-09-23T20:59:04.940Z,16.23
2022-09-23T21:01:36.732Z,16.70
2022-09-23T21:04:05.957Z,14.30
2022-09-23T21:06:37.959Z,17.70
2022-09-23T21:09:06.196Z,20.20
2022-09-23T21:11:34.074Z,20.80
2022-09-23T21:14:01.691Z,20.17
2022-09-23T21:16:28.750Z,20.05
2022-09-23T21:18:55.654Z,18.40
2022-09-23T21:21:22.714Z,18.38
2022-09-23T21:23:50.588Z,16.23
2022-09-23T21:26:20.764Z,18.45
2022-09-23T21:28:59.827Z,16.70
2022-09-23T21:31:32.382Z,20.08
2022-09-23T21:34:01.806Z,20.40
2022-09-23T21:36:31.059Z,17.57
2022-09-23T21:38:58.287Z,16.00
2022-09-23T21:41:25.256Z,19.30
2022-09-23T21:43:52.162Z,18.10
2022-09-23T21:46:20.855Z,20.58
2022-09-23T21:48:53.038Z,17.67
2022-09-23T21:51:28.876Z,16.40
2022-09-23T21:53:57.756Z,19.35
2022-09-23T21:56:30.236Z,18.48
2022-09-23T21:58:59.705Z,19.10
2022-09-23T22:01:38.462Z,18.40
2022-09-23T22:04:17.328Z,21.98
2022-09-23T22:06:45.721Z,20.50
2022-09-23T22:09:15.738Z,19.30
2022-09-23T22:12:01.473Z,21.85
2022-09-23T22:14:29.749Z,21.27
2022-09-23T22:17:00.077Z,22.50
2022-09-23T22:19:35.767Z,20.63
2022-09-23T22:22:07.942Z,21.98
2022-09-23T22:24:34.894Z,19.30
2022-09-23T22:27:01.836Z,21.93
2022-09-23T22:29:47.269Z,20.48
2022-09-23T22:32:32.856Z,19.75
2022-09-23T22:34:59.647Z,21.55
2022-09-23T22:37:34.395Z,20.95
2022-09-23T22:40:06.640Z,23.70
2022-09-23T22:42:33.747Z,24.02
2022-09-23T22:45:00.741Z,24.05
2022-09-23T22:47:27.733Z,24.17
2022-09-23T22:49:55.645Z,23.25
2022-09-23T22:52:24.563Z,26.53
2022-09-23T22:54:52.201Z,24.45
2022-09-23T22:57:22.223Z,25.90
2022-09-23T22:59:49.123Z,25.00
2022-09-23T23:02:18.213Z,23.17
2022-09-23T23:04:47.314Z,22.13
2022-09-23T23:07:16.262Z,25.45
2022-09-23T23:09:43.203Z,23.00
2022-09-23T23:12:10.055Z,25.77
2022-09-23T23:14:38.132Z,28.67
2022-09-23T23:17:07.673Z,25.83
2022-09-23T23:19:37.141Z,25.30
2022-09-23T23:22:07.004Z,28.42
2022-09-23T23:24:33.938Z,27.60
2022-09-23T23:27:00.885Z,25.85
2022-09-23T23:29:28.038Z,29.17
2022-09-23T23:31:55.082Z,30.35
2022-09-23T23:34:23.309Z,29.80
2022-09-23T23:36:56.389Z,30.13
2022-09-23T23:39:24.978Z,23.60
2022-09-23T23:41:57.106Z,27.37
2022-09-23T23:44:25.747Z,29.35
2022-09-23T23:46:53.942Z,26.75
2022-09-23T23:49:21.746Z,27.75
2022-09-23T23:51:49.239Z,26.10
2022-09-23T23:54:16.389Z,28.63
2022-09-23T23:56:43.391Z,26.42
2022-09-23T23:59:10.385Z,24.98
